createdAt,value
2022-12-18T00:00:24.842Z,98729.38
2022-12-18T00:02:51.643Z,98722.25
2022-12-18T00:05:18.340Z,98733.44
2022-12-18T00:07:45.030Z,98730.13
2022-12-18T00:10:11.731Z,98728.91
2022-12-18T00:12:42.040Z,98742.38
2022-12-18T00:15:08.719Z,98749.81
2022-12-18T00:17:35.990Z,98750.72
2022-12-18T00:20:02.662Z,98745.66
2022-12-18T00:22:29.341Z,98750.50
2022-12-18T00:24:56.049Z,98756.50
2022-12-18T00:27:22.868Z,98760.09
2022-12-18T00:29:49.501Z,98766.41
2022-12-18T00:32:16.165Z,98764.75
2022-12-18T00:34:42.814Z,98769.66
2022-12-18T00:37:09.502Z,98774.00
2022-12-18T00:39:36.216Z,98777.50
2022-12-18T00:42:02.847Z,98782.16
2022-12-18T00:44:29.462Z,98784.34
2022-12-18T00:46:56.112Z,98786.34
2022-12-18T00:49:22.720Z,98786.19
2022-12-18T00:51:49.405Z,98793.16
2022-12-18T00:54:16.023Z,98792.34
2022-12-18T00:56:48.993Z,98793.41
2022-12-18T00:59:16.411Z,98791.69
2022-12-18T01:01:43.211Z,98788.81
2022-12-18T01:04:09.971Z,98795.09
2022-12-18T01:06:36.711Z,98797.56
2022-12-18T01:09:03.351Z,98803.75
2022-12-18T01:11:30.149Z,98800.16
2022-12-18T01:13:56.840Z,98806.81
2022-12-18T01:16:23.611Z,98808.59
2022-12-18T01:18:50.335Z,98808.00
2022-12-18T01:21:17.029Z,98815.75
2022-12-18T01:23:43.656Z,98815.34
2022-12-18T01:26:10.309Z,98819.00
2022-12-18T01:28:37.021Z,98822.13
2022-12-18T01:31:03.789Z,98823.81
2022-12-18T01:33:30.498Z,98832.06
2022-12-18T01:35:57.143Z,98827.41
2022-12-18T01:38:23.773Z,98827.78
2022-12-18T01:40:50.455Z,98829.81
2022-12-18T01:43:17.103Z,98825.69
2022-12-18T01:45:43.813Z,98833.13
2022-12-18T01:48:10.496Z,98837.63
2022-12-18T01:50:37.141Z,98838.06
2022-12-18T01:53:03.914Z,98844.81
2022-12-18T01:55:30.810Z,98847.63
2022-12-18T01:57:57.446Z,98853.22
2022-12-18T02:00:24.103Z,98857.84
2022-12-18T02:02:50.841Z,98860.81
2022-12-18T02:05:17.610Z,98858.97
2022-12-18T02:07:44.338Z,98864.63
2022-12-18T02:10:10.992Z,98861.88
2022-12-18T02:12:37.685Z,98857.63
2022-12-18T02:15:05.633Z,98869.16
2022-12-18T02:17:32.268Z,98863.44
2022-12-18T02:19:58.969Z,98865.75
2022-12-18T02:22:25.628Z,98869.72
2022-12-18T02:24:52.375Z,98871.22
2022-12-18T02:27:19.027Z,98870.91
2022-12-18T02:29:45.664Z,98883.31
2022-12-18T02:32:12.330Z,98877.38
2022-12-18T02:34:39.238Z,98874.63
2022-12-18T02:37:05.932Z,98871.16
2022-12-18T02:39:32.629Z,98863.69
2022-12-18T02:41:59.323Z,98868.69
2022-12-18T02:44:25.992Z,98864.47
2022-12-18T02:46:52.611Z,98868.25
2022-12-18T02:49:19.296Z,98875.91
2022-12-18T02:51:46.000Z,98884.88
2022-12-18T02:54:12.708Z,98889.66
2022-12-18T02:56:39.419Z,98893.94
2022-12-18T02:59:06.115Z,98889.22
2022-12-18T03:01:32.915Z,98896.97
2022-12-18T03:03:59.639Z,98899.09
2022-12-18T03:06:26.344Z,98898.78
2022-12-18T03:08:53.018Z,98902.13
2022-12-18T03:11:19.645Z,98908.97
2022-12-18T03:13:46.325Z,98905.16
2022-12-18T03:16:13.002Z,98906.28
2022-12-18T03:18:39.672Z,98905.38
2022-12-18T03:21:06.391Z,98896.22
2022-12-18T03:23:34.108Z,98897.66
2022-12-18T03:26:05.804Z,98903.44
2022-12-18T03:28:34.092Z,98904.47
2022-12-18T03:31:00.767Z,98901.97
2022-12-18T03:33:27.429Z,98909.00
2022-12-18T03:35:54.117Z,98917.31
2022-12-18T03:38:20.840Z,98916.81
2022-12-18T03:40:47.466Z,98917.88
2022-12-18T03:43:14.094Z,98913.94
2022-12-18T03:45:40.835Z,98914.91
2022-12-18T03:48:07.518Z,98910.75
2022-12-18T03:50:34.206Z,98921.69
2022-12-18T03:53:05.234Z,98927.53
2022-12-18T03:55:31.889Z,98929.56
2022-12-18T03:57:58.524Z,98931.06
2022-12-18T04:00:25.164Z,98925.84
2022-12-18T04:02:51.840Z,98924.84
2022-12-18T04:05:18.534Z,98938.13
2022-12-18T04:07:45.173Z,98941.34
2022-12-18T04:10:11.841Z,98938.22
2022-12-18T04:12:38.481Z,98935.03
2022-12-18T04:15:05.153Z,98933.31
2022-12-18T04:17:31.780Z,98924.72
2022-12-18T04:19:58.429Z,98928.44
2022-12-18T04:22:25.072Z,98944.44
2022-12-18T04:24:51.757Z,98941.03
2022-12-18T04:27:18.444Z,98950.38
2022-12-18T04:29:45.169Z,98955.00
2022-12-18T04:32:11.832Z,98957.50
2022-12-18T04:34:38.494Z,98960.97
2022-12-18T04:37:05.186Z,98962.72
2022-12-18T04:39:31.815Z,98967.72
2022-12-18T04:41:58.482Z,98969.91
2022-12-18T04:44:25.154Z,98973.25
2022-12-18T04:46:51.885Z,98977.13
2022-12-18T04:49:18.652Z,98980.50
2022-12-18T04:51:45.352Z,98987.13
2022-12-18T04:54:12.026Z,98983.00
2022-12-18T04:56:38.714Z,98990.44
2022-12-18T04:59:05.378Z,98995.66
2022-12-18T05:01:34.736Z,98991.28
2022-12-18T05:04:01.969Z,98981.88
2022-12-18T05:06:28.801Z,98983.53
2022-12-18T05:08:55.460Z,98991.75
2022-12-18T05:11:22.149Z,99004.50
2022-12-18T05:13:48.805Z,99007.03
2022-12-18T05:16:15.565Z,99009.75
2022-12-18T05:18:42.280Z,99009.63
2022-12-18T05:21:08.896Z,99013.31
2022-12-18T05:23:35.531Z,99018.94
2022-12-18T05:26:02.162Z,99021.59
2022-12-18T05:28:28.821Z,99025.78
2022-12-18T05:30:55.508Z,99033.00
2022-12-18T05:33:22.280Z,99032.09
2022-12-18T05:35:48.933Z,99029.25
2022-12-18T05:38:15.634Z,99032.75
2022-12-18T05:40:42.299Z,99037.19
2022-12-18T05:43:08.963Z,99035.03
2022-12-18T05:45:35.613Z,99040.00
2022-12-18T05:48:02.261Z,99037.47
2022-12-18T05:50:28.943Z,99046.97
2022-12-18T05:52:55.641Z,99035.53
2022-12-18T05:55:22.399Z,99036.66
2022-12-18T05:57:49.097Z,99044.78
2022-12-18T06:00:15.772Z,99040.06
2022-12-18T06:02:43.494Z,99054.59
2022-12-18T06:05:10.229Z,99050.72
2022-12-18T06:07:36.880Z,99052.59
2022-12-18T06:10:03.543Z,99055.19
2022-12-18T06:12:30.204Z,99052.69
2022-12-18T06:14:56.887Z,99047.78
2022-12-18T06:17:23.505Z,99059.91
2022-12-18T06:19:50.166Z,99058.28
2022-12-18T06:22:16.838Z,99070.81
2022-12-18T06:24:43.468Z,99073.47
2022-12-18T06:27:10.079Z,99077.41
2022-12-18T06:29:36.736Z,99082.56
2022-12-18T06:32:03.734Z,99084.88
2022-12-18T06:34:30.524Z,99095.00
2022-12-18T06:36:57.223Z,99087.66
2022-12-18T06:39:23.887Z,99084.13
2022-12-18T06:41:50.558Z,99100.50
2022-12-18T06:44:17.259Z,99097.56
2022-12-18T06:46:43.943Z,99098.97
2022-12-18T06:49:10.595Z,99104.81
2022-12-18T06:51:37.539Z,99111.94
2022-12-18T06:54:04.221Z,99111.63
2022-12-18T06:56:30.823Z,99110.03
2022-12-18T06:58:57.581Z,99121.41
2022-12-18T07:01:24.345Z,99123.63
2022-12-18T07:03:51.120Z,99121.66
2022-12-18T07:06:17.790Z,99120.81
2022-12-18T07:08:44.402Z,99115.06
2022-12-18T07:11:11.066Z,99128.31
2022-12-18T07:13:38.144Z,99125.22
2022-12-18T07:16:06.833Z,99126.66
2022-12-18T07:18:36.395Z,99126.38
2022-12-18T07:21:03.068Z,99131.38
2022-12-18T07:23:29.725Z,99136.84
2022-12-18T07:25:56.388Z,99135.78
2022-12-18T07:28:23.108Z,99143.59
2022-12-18T07:30:50.701Z,99143.59
2022-12-18T07:33:17.369Z,99153.41
2022-12-18T07:35:43.986Z,99153.25
2022-12-18T07:38:10.707Z,99145.66
2022-12-18T07:40:37.335Z,99156.25
2022-12-18T07:43:03.996Z,99153.34
2022-12-18T07:45:30.775Z,99157.28
2022-12-18T07:47:57.476Z,99147.88
2022-12-18T07:50:24.153Z,99161.63
2022-12-18T07:52:50.850Z,99162.31
2022-12-18T07:55:17.494Z,99168.94
2022-12-18T07:57:53.424Z,99163.84
2022-12-18T08:00:23.215Z,99168.13
2022-12-18T08:02:50.003Z,99172.22
2022-12-18T08:05:16.775Z,99171.41
2022-12-18T08:07:43.493Z,99172.47
2022-12-18T08:10:10.131Z,99173.13
2022-12-18T08:12:36.845Z,99173.72
2022-12-18T08:15:03.466Z,99164.59
2022-12-18T08:17:30.765Z,99183.13
2022-12-18T08:19:57.465Z,99185.81
2022-12-18T08:22:24.147Z,99192.69
2022-12-18T08:24:50.991Z,99186.63
2022-12-18T08:27:33.000Z,99179.75
2022-12-18T08:29:59.939Z,99159.47
2022-12-18T08:32:26.682Z,99162.28
2022-12-18T08:34:53.451Z,99165.38
2022-12-18T08:37:20.088Z,99164.72
2022-12-18T08:39:46.706Z,99169.63
2022-12-18T08:42:13.514Z,99177.72
2022-12-18T08:44:40.203Z,99180.66
2022-12-18T08:47:06.865Z,99179.31
2022-12-18T08:49:33.589Z,99184.06
2022-12-18T08:52:00.264Z,99181.56
2022-12-18T08:54:26.926Z,99187.06
2022-12-18T08:56:53.584Z,99189.25
2022-12-18T08:59:20.275Z,99189.94
2022-12-18T09:01:47.564Z,99188.31
2022-12-18T09:04:14.242Z,99185.09
2022-12-18T09:06:40.968Z,99179.88
2022-12-18T09:09:07.611Z,99188.19
2022-12-18T09:11:34.256Z,99193.56
2022-12-18T09:14:00.952Z,99190.81
2022-12-18T09:16:31.974Z,99201.88
2022-12-18T09:18:59.399Z,99195.22
2022-12-18T09:21:26.026Z,99208.25
2022-12-18T09:23:52.724Z,99204.75
2022-12-18T09:26:19.396Z,99201.88
2022-12-18T09:28:46.095Z,99202.09
2022-12-18T09:31:12.810Z,99207.44
2022-12-18T09:33:39.545Z,99208.84
2022-12-18T09:36:06.608Z,99202.56
2022-12-18T09:38:33.224Z,99196.44
2022-12-18T09:40:59.935Z,99197.59
2022-12-18T09:43:26.617Z,99200.78
2022-12-18T09:45:53.346Z,99193.28
2022-12-18T09:48:20.046Z,99189.28
2022-12-18T09:50:46.744Z,99190.22
2022-12-18T09:53:13.404Z,99186.44
2022-12-18T09:55:40.080Z,99189.66
2022-12-18T09:58:06.737Z,99187.03
2022-12-18T10:00:34.246Z,99189.09
2022-12-18T10:03:01.064Z,99186.16
2022-12-18T10:05:27.707Z,99179.56
2022-12-18T10:07:54.395Z,99173.38
2022-12-18T10:10:21.122Z,99174.63
2022-12-18T10:12:48.004Z,99175.97
2022-12-18T10:15:14.686Z,99177.06
2022-12-18T10:17:41.343Z,99175.66
2022-12-18T10:20:08.009Z,99172.84
2022-12-18T10:22:34.652Z,99175.31
2022-12-18T10:25:01.297Z,99178.44
2022-12-18T10:27:27.939Z,99179.00
2022-12-18T10:29:54.892Z,99173.44
2022-12-18T10:32:21.503Z,99176.63
2022-12-18T10:34:48.176Z,99179.72
2022-12-18T10:37:14.833Z,99175.41
2022-12-18T10:39:41.494Z,99177.38
2022-12-18T10:42:08.148Z,99175.06
2022-12-18T10:44:34.821Z,99174.72
2022-12-18T10:47:01.459Z,99173.03
2022-12-18T10:49:28.120Z,99167.50
2022-12-18T10:51:54.804Z,99171.69
2022-12-18T10:54:21.457Z,99163.47
2022-12-18T10:56:48.151Z,99159.31
2022-12-18T10:59:14.818Z,99161.53
2022-12-18T11:01:41.588Z,99152.06
2022-12-18T11:04:08.310Z,99163.06
2022-12-18T11:06:35.013Z,99155.81
2022-12-18T11:09:01.874Z,99162.19
2022-12-18T11:11:28.532Z,99165.16
2022-12-18T11:13:55.238Z,99166.47
2022-12-18T11:16:21.915Z,99164.09
2022-12-18T11:18:48.686Z,99168.47
2022-12-18T11:21:15.327Z,99165.25
2022-12-18T11:23:42.023Z,99154.56
2022-12-18T11:26:08.700Z,99157.31
2022-12-18T11:28:35.396Z,99152.84
2022-12-18T11:31:02.385Z,99147.09
2022-12-18T11:33:29.070Z,99152.28
2022-12-18T11:35:55.721Z,99144.22
2022-12-18T11:38:22.363Z,99151.69
2022-12-18T11:40:49.096Z,99142.50
2022-12-18T11:43:15.877Z,99140.38
2022-12-18T11:45:42.522Z,99139.63
2022-12-18T11:48:10.881Z,99139.31
2022-12-18T11:50:37.541Z,99138.63
2022-12-18T11:53:06.513Z,99146.47
2022-12-18T11:55:33.255Z,99136.19
2022-12-18T11:57:59.905Z,99132.66
2022-12-18T12:00:26.545Z,99134.94
2022-12-18T12:02:53.254Z,99138.66
2022-12-18T12:05:19.980Z,99130.78
2022-12-18T12:07:46.645Z,99136.81
2022-12-18T12:10:13.352Z,99130.50
2022-12-18T12:12:43.952Z,99135.88
2022-12-18T12:15:13.318Z,99130.53
2022-12-18T12:17:39.969Z,99138.78
2022-12-18T12:20:06.603Z,99144.13
2022-12-18T12:22:33.705Z,99145.44
2022-12-18T12:25:00.365Z,99147.84
2022-12-18T12:27:27.025Z,99149.00
2022-12-18T12:29:53.690Z,99145.47
2022-12-18T12:32:20.418Z,99144.91
2022-12-18T12:34:47.130Z,99138.84
2022-12-18T12:37:13.805Z,99132.75
2022-12-18T12:39:40.483Z,99140.44
2022-12-18T12:42:07.113Z,99133.09
2022-12-18T12:44:33.751Z,99143.41
2022-12-18T12:47:00.411Z,99140.88
2022-12-18T12:49:27.131Z,99141.06
2022-12-18T12:51:53.977Z,99143.03
2022-12-18T12:54:21.529Z,99139.22
2022-12-18T12:56:48.385Z,99149.38
2022-12-18T12:59:15.473Z,99150.13
2022-12-18T13:01:43.243Z,99148.41
2022-12-18T13:04:10.076Z,99142.56
2022-12-18T13:06:41.515Z,99143.03
2022-12-18T13:09:11.026Z,99139.22
2022-12-18T13:11:37.787Z,99145.22
2022-12-18T13:14:04.854Z,99138.75
2022-12-18T13:16:32.356Z,99144.47
2022-12-18T13:18:59.003Z,99150.47
2022-12-18T13:21:25.661Z,99148.03
2022-12-18T13:23:52.372Z,99151.78
2022-12-18T13:26:23.238Z,99163.16
2022-12-18T13:28:54.795Z,99156.59
2022-12-18T13:31:21.475Z,99160.69
2022-12-18T13:34:23.954Z,99161.53
2022-12-18T13:36:34.806Z,99177.97
2022-12-18T13:39:01.828Z,99176.22
2022-12-18T13:41:28.472Z,99180.72
2022-12-18T13:43:55.144Z,99175.78
2022-12-18T13:46:21.801Z,99179.09
2022-12-18T13:48:48.403Z,99172.50
2022-12-18T13:51:15.374Z,99173.34
2022-12-18T13:53:42.426Z,99171.88
2022-12-18T13:56:09.669Z,99172.69
2022-12-18T13:58:36.849Z,99176.41
2022-12-18T14:01:03.768Z,99171.28
2022-12-18T14:03:30.715Z,99187.53
2022-12-18T14:05:57.600Z,99191.09
2022-12-18T14:08:24.285Z,99185.19
2022-12-18T14:10:51.462Z,99180.19
2022-12-18T14:13:18.185Z,99174.41
2022-12-18T14:15:47.660Z,99176.91
2022-12-18T14:18:15.144Z,99188.72
2022-12-18T14:20:41.766Z,99182.78
2022-12-18T14:23:08.444Z,99190.69
2022-12-18T14:25:35.074Z,99193.19
2022-12-18T14:28:01.790Z,99190.44
2022-12-18T14:30:28.490Z,99198.38
2022-12-18T14:32:55.155Z,99195.69
2022-12-18T14:35:21.799Z,99198.03
2022-12-18T14:37:48.458Z,99201.16
2022-12-18T14:40:15.165Z,99197.81
2022-12-18T14:42:41.831Z,99202.06
2022-12-18T14:45:15.645Z,99206.97
2022-12-18T14:47:42.351Z,99213.94
2022-12-18T14:50:09.031Z,99213.94
2022-12-18T14:52:35.726Z,99207.66
2022-12-18T14:55:02.375Z,99215.34
2022-12-18T14:57:29.024Z,99218.13
2022-12-18T14:59:55.704Z,99210.44
2022-12-18T15:02:22.585Z,99216.09
2022-12-18T15:04:49.431Z,99207.91
2022-12-18T15:07:16.254Z,99205.00
2022-12-18T15:09:43.874Z,99222.88
2022-12-18T15:12:10.537Z,99219.19
2022-12-18T15:14:37.224Z,99219.56
2022-12-18T15:17:03.915Z,99222.44
2022-12-18T15:19:30.588Z,99216.31
2022-12-18T15:22:00.255Z,99220.25
2022-12-18T15:24:31.169Z,99224.03
2022-12-18T15:26:57.806Z,99226.66
2022-12-18T15:29:24.466Z,99225.47
2022-12-18T15:31:51.140Z,99230.19
2022-12-18T15:34:17.774Z,99236.69
2022-12-18T15:36:44.430Z,99235.50
2022-12-18T15:39:11.130Z,99239.91
2022-12-18T15:41:37.786Z,99247.78
2022-12-18T15:44:04.419Z,99247.13
2022-12-18T15:46:31.140Z,99247.28
2022-12-18T15:49:01.757Z,99245.94
2022-12-18T15:51:29.511Z,99246.47
2022-12-18T15:53:56.343Z,99238.34
2022-12-18T15:56:22.996Z,99244.28
2022-12-18T15:58:49.649Z,99249.75
2022-12-18T16:01:16.403Z,99255.94
2022-12-18T16:03:43.510Z,99252.06
2022-12-18T16:06:10.597Z,99254.34
2022-12-18T16:08:37.306Z,99254.81
2022-12-18T16:11:05.432Z,99270.72
2022-12-18T16:13:32.085Z,99264.44
2022-12-18T16:15:59.524Z,99262.00
2022-12-18T16:18:26.244Z,99272.09
2022-12-18T16:20:52.886Z,99272.44
2022-12-18T16:23:19.525Z,99281.00
2022-12-18T16:25:46.210Z,99275.69
2022-12-18T16:28:12.831Z,99278.88
2022-12-18T16:30:39.432Z,99274.00
2022-12-18T16:33:07.451Z,99281.66
2022-12-18T16:35:34.425Z,99278.34
2022-12-18T16:38:01.056Z,99277.53
2022-12-18T16:40:27.718Z,99270.34
2022-12-18T16:42:54.432Z,99268.97
2022-12-18T16:45:21.112Z,99266.88
2022-12-18T16:47:47.779Z,99271.06
2022-12-18T16:50:14.477Z,99259.94
2022-12-18T16:52:41.132Z,99271.97
2022-12-18T16:55:07.791Z,99266.06
2022-12-18T16:57:34.415Z,99275.16
2022-12-18T17:00:05.193Z,99272.53
2022-12-18T17:02:32.836Z,99267.09
2022-12-18T17:04:59.623Z,99268.03
2022-12-18T17:07:26.533Z,99266.72
2022-12-18T17:09:53.156Z,99259.06
2022-12-18T17:12:19.843Z,99258.56
2022-12-18T17:14:46.584Z,99259.47
2022-12-18T17:17:22.293Z,99264.25
2022-12-18T17:19:49.921Z,99273.03
2022-12-18T17:22:16.624Z,99270.97
2022-12-18T17:24:43.319Z,99279.97
2022-12-18T17:27:09.993Z,99271.81
2022-12-18T17:29:36.600Z,99268.69
2022-12-18T17:32:03.322Z,99279.97
2022-12-18T17:34:30.090Z,99282.28
2022-12-18T17:36:57.714Z,99283.31
2022-12-18T17:39:24.387Z,99278.19
2022-12-18T17:41:51.120Z,99287.19
2022-12-18T17:44:17.787Z,99296.94
2022-12-18T17:46:44.492Z,99290.25
2022-12-18T17:49:11.243Z,99285.00
2022-12-18T17:51:37.947Z,99284.41
2022-12-18T17:54:04.626Z,99281.63
2022-12-18T17:56:31.467Z,99288.84
2022-12-18T17:58:58.296Z,99295.03
2022-12-18T18:01:25.138Z,99298.28
2022-12-18T18:03:53.839Z,99305.81
2022-12-18T18:06:20.733Z,99308.97
2022-12-18T18:08:47.379Z,99311.94
2022-12-18T18:11:14.471Z,99306.72
2022-12-18T18:13:46.567Z,99314.63
2022-12-18T18:16:13.699Z,99317.34
2022-12-18T18:18:40.365Z,99316.91
2022-12-18T18:21:07.076Z,99313.84
2022-12-18T18:23:34.211Z,99309.44
2022-12-18T18:26:00.904Z,99314.81
2022-12-18T18:28:27.695Z,99307.38
2022-12-18T18:30:54.388Z,99311.97
2022-12-18T18:33:21.026Z,99310.50
2022-12-18T18:35:55.111Z,99308.13
2022-12-18T18:38:21.791Z,99308.53
2022-12-18T18:40:48.500Z,99310.75
2022-12-18T18:43:15.175Z,99305.41
2022-12-18T18:45:41.944Z,99298.72
2022-12-18T18:48:10.298Z,99312.91
2022-12-18T18:50:36.963Z,99310.22
2022-12-18T18:53:03.597Z,99312.38
2022-12-18T18:55:30.275Z,99313.75
2022-12-18T18:57:56.963Z,99309.88
2022-12-18T19:00:23.722Z,99316.25
2022-12-18T19:02:52.191Z,99316.63
2022-12-18T19:05:20.752Z,99322.75
2022-12-18T19:07:47.473Z,99320.25
2022-12-18T19:10:14.148Z,99316.84
2022-12-18T19:12:40.760Z,99320.75
2022-12-18T19:15:07.601Z,99314.25
2022-12-18T19:17:34.877Z,99313.44
2022-12-18T19:20:01.984Z,99317.44
2022-12-18T19:22:28.840Z,99321.16
2022-12-18T19:24:55.536Z,99330.97
2022-12-18T19:27:22.268Z,99329.19
2022-12-18T19:29:48.921Z,99333.19
2022-12-18T19:32:15.724Z,99331.72
2022-12-18T19:34:42.404Z,99335.56
2022-12-18T19:37:11.548Z,99324.81
2022-12-18T19:39:38.286Z,99328.59
2022-12-18T19:42:04.981Z,99320.84
2022-12-18T19:44:31.695Z,99324.31
2022-12-18T19:46:58.365Z,99326.56
2022-12-18T19:49:24.994Z,99324.81
2022-12-18T19:51:51.787Z,99329.13
2022-12-18T19:54:18.480Z,99332.72
2022-12-18T19:56:45.433Z,99348.13
2022-12-18T19:59:12.133Z,99334.44
2022-12-18T20:01:39.038Z,99333.66
2022-12-18T20:04:06.144Z,99331.88
2022-12-18T20:06:33.539Z,99324.81
2022-12-18T20:09:01.058Z,99331.84
2022-12-18T20:11:28.072Z,99335.72
2022-12-18T20:13:54.706Z,99341.91
2022-12-18T20:16:21.435Z,99346.44
2022-12-18T20:18:48.155Z,99350.25
2022-12-18T20:21:14.801Z,99355.28
2022-12-18T20:23:41.891Z,99356.25
2022-12-18T20:26:08.862Z,99355.06
2022-12-18T20:28:35.566Z,99351.25
2022-12-18T20:31:02.621Z,99346.00
2022-12-18T20:33:29.571Z,99343.16
2022-12-18T20:35:56.277Z,99340.94
2022-12-18T20:38:23.068Z,99340.78
2022-12-18T20:40:51.398Z,99335.53
2022-12-18T20:43:18.025Z,99334.06
2022-12-18T20:45:44.806Z,99331.19
2022-12-18T20:48:13.684Z,99339.09
2022-12-18T20:50:40.309Z,99335.78
2022-12-18T20:53:06.991Z,99336.38
2022-12-18T20:55:33.693Z,99336.03
2022-12-18T20:58:00.376Z,99332.13
2022-12-18T21:00:27.058Z,99337.50
2022-12-18T21:02:53.805Z,99345.47
2022-12-18T21:05:20.655Z,99338.88
2022-12-18T21:07:47.332Z,99341.91
2022-12-18T21:10:14.045Z,99342.00
2022-12-18T21:12:44.043Z,99344.88
2022-12-18T21:15:15.083Z,99344.75
2022-12-18T21:17:44.584Z,99343.94
2022-12-18T21:20:14.088Z,99345.16
2022-12-18T21:22:44.970Z,99342.16
2022-12-18T21:25:11.667Z,99339.50
2022-12-18T21:27:38.347Z,99336.97
2022-12-18T21:30:05.111Z,99328.31
2022-12-18T21:32:33.570Z,99326.69
2022-12-18T21:35:00.421Z,99329.84
2022-12-18T21:37:27.141Z,99337.63
2022-12-18T21:39:53.744Z,99336.91
2022-12-18T21:42:20.407Z,99338.31
2022-12-18T21:44:47.244Z,99336.28
2022-12-18T21:47:22.290Z,99335.38
2022-12-18T21:49:49.857Z,99330.31
2022-12-18T21:52:16.783Z,99328.94
2022-12-18T21:54:43.620Z,99331.06
2022-12-18T21:57:10.284Z,99330.81
2022-12-18T21:59:36.920Z,99336.91
2022-12-18T22:02:03.634Z,99338.03
2022-12-18T22:04:30.421Z,99325.06
2022-12-18T22:06:57.066Z,99333.31
2022-12-18T22:09:24.722Z,99332.41
2022-12-18T22:11:51.414Z,99330.81
2022-12-18T22:14:18.049Z,99326.78
2022-12-18T22:16:44.695Z,99325.78
2022-12-18T22:19:11.966Z,99326.75
2022-12-18T22:21:39.067Z,99320.69
2022-12-18T22:24:05.756Z,99321.00
2022-12-18T22:26:37.895Z,99320.94
2022-12-18T22:29:06.569Z,99315.09
2022-12-18T22:31:33.286Z,99316.53
2022-12-18T22:34:00.044Z,99322.47
2022-12-18T22:36:26.713Z,99320.00
2022-12-18T22:38:53.378Z,99313.63
2022-12-18T22:41:20.300Z,99310.38
2022-12-18T22:43:46.937Z,99317.00
2022-12-18T22:46:13.668Z,99316.88
2022-12-18T22:48:40.425Z,99319.34
2022-12-18T22:51:07.107Z,99319.03
2022-12-18T22:53:34.117Z,99325.22
2022-12-18T22:56:00.766Z,99328.81
2022-12-18T22:58:27.452Z,99329.41
2022-12-18T23:00:54.092Z,99313.06
2022-12-18T23:03:20.738Z,99314.88
2022-12-18T23:05:47.465Z,99311.19
2022-12-18T23:08:14.138Z,99315.88
2022-12-18T23:10:40.771Z,99310.28
2022-12-18T23:13:07.380Z,99308.44
2022-12-18T23:15:34.043Z,99310.28
2022-12-18T23:18:00.678Z,99318.78
2022-12-18T23:20:27.409Z,99316.13
2022-12-18T23:22:54.069Z,99303.66
2022-12-18T23:25:20.824Z,99304.94
2022-12-18T23:27:47.547Z,99302.59
2022-12-18T23:30:14.248Z,99305.16
2022-12-18T23:32:40.928Z,99298.03
2022-12-18T23:35:07.858Z,99301.41
2022-12-18T23:37:58.363Z,99301.66
2022-12-18T23:40:23.274Z,99299.88
2022-12-18T23:42:49.933Z,99296.16
2022-12-18T23:45:17.942Z,99296.03
2022-12-18T23:47:44.950Z,99293.44
2022-12-18T23:50:13.722Z,99290.66
2022-12-18T23:52:40.389Z,99290.28
2022-12-18T23:55:07.023Z,99289.47
2022-12-18T23:57:33.701Z,99288.69
